X  Zatvori METAR podaci zračne luke     LYNI Nis Airport
Temperatura
-1°C Temperatura
-1°C Točka rosišta
100% Vlaga



Vjetar
2 MPS
3 KM/S
1 M/S
2 Čvorovi



Tišina
S
Trenutna situacija

Smrzavanje Magla Smrzavanje Magla
Tlak zraka 1019.92 (hPa) - 30.12 (inHg)
Vidljivost 0.1 (milje) - 0.2 (km)
Zračna luka
Kôd zračne luke LYNI

Lokacija: Nis Airport
Udaljenost: 63 (mi)

Metar:
LYNI 290730Z VRB02KT 0200 R29/0300N R11/0350N FZFG VV001 M01/M01 Q1020 BECMG 1000 BR BKN003

Vrijeme: 29-11-2022 08:30 CET